Time;durP1;ratioP1;P1;durP2;ratioP2;P2;SDS_P1;SDS_P2;PMS_P1;PMS_P2;Temp;Humidity;BMP_temperature;BMP_pressure;BME280_temperature;BME280_humidity;BME280_pressure;Samples;Min_cycle;Max_cycle;Signal;HPM_P1;HPM_P2
2022/07/16 00:02:59;;;;;;;6.30;5.47;;;19.30;59.90;;;;;;5044978;28;20436;-81
2022/07/16 00:05:27;;;;;;;8.67;5.43;;;19.30;60.00;;;;;;5039664;28;20469;-82
2022/07/16 00:07:54;;;;;;;6.83;6.00;;;19.20;60.40;;;;;;5038632;28;20446;-81
2022/07/16 00:10:21;;;;;;;6.20;5.63;;;19.10;60.40;;;;;;5043568;28;20449;-82
2022/07/16 00:12:48;;;;;;;7.10;5.87;;;19.10;60.80;;;;;;5044027;28;20441;-81
2022/07/16 00:15:15;;;;;;;6.93;5.87;;;19.00;61.30;;;;;;5040680;28;20485;-80
2022/07/16 00:17:42;;;;;;;8.33;5.90;;;19.00;61.20;;;;;;5038200;28;20445;-80
2022/07/16 00:20:09;;;;;;;6.43;5.57;;;19.00;61.20;;;;;;5049049;28;20438;-80
2022/07/16 00:22:37;;;;;;;8.80;6.60;;;18.90;61.40;;;;;;5054695;28;20445;-81
2022/07/16 00:25:04;;;;;;;8.47;6.13;;;18.90;61.60;;;;;;5038576;28;20458;-81
2022/07/16 00:27:31;;;;;;;8.53;5.70;;;18.90;62.00;;;;;;5035837;28;20437;-80
2022/07/16 00:29:57;;;;;;;6.60;5.30;;;18.90;62.10;;;;;;5037869;28;20430;-80
2022/07/16 00:32:24;;;;;;;5.70;5.20;;;18.90;62.30;;;;;;5037328;28;20434;-80
2022/07/16 00:34:51;;;;;;;5.53;5.03;;;18.90;62.60;;;;;;5037671;28;20490;-81
2022/07/16 00:37:17;;;;;;;5.80;5.20;;;18.80;63.10;;;;;;5038594;28;20446;-81
2022/07/16 00:39:45;;;;;;;6.60;5.90;;;18.80;63.70;;;;;;5041314;28;20442;-81
2022/07/16 00:42:12;;;;;;;6.77;5.93;;;18.70;64.30;;;;;;5042473;28;20453;-80
2022/07/16 00:44:39;;;;;;;11.03;5.87;;;18.70;64.60;;;;;;5039065;28;20457;-81
2022/07/16 00:47:06;;;;;;;8.60;6.60;;;18.60;64.50;;;;;;5050474;28;20424;-79
2022/07/16 00:49:32;;;;;;;8.40;5.90;;;18.60;64.70;;;;;;5051182;28;20441;-81
2022/07/16 00:51:59;;;;;;;7.83;7.03;;;18.50;64.80;;;;;;5038020;28;20441;-81
2022/07/16 00:54:26;;;;;;;6.97;6.27;;;18.50;65.90;;;;;;5037507;28;20882;-81
2022/07/16 00:56:54;;;;;;;8.80;5.43;;;18.50;65.20;;;;;;5036733;28;20438;-81
2022/07/16 00:59:21;;;;;;;6.60;5.70;;;18.50;66.10;;;;;;5037009;28;20786;-81
2022/07/16 01:01:47;;;;;;;6.60;5.50;;;18.40;66.50;;;;;;5034381;28;20860;-81
2022/07/16 01:04:18;;;;;;;6.63;5.80;;;18.30;67.60;;;;;;5037688;28;20461;-81
2022/07/16 01:06:46;;;;;;;5.80;5.20;;;18.30;67.10;;;;;;5036453;28;20445;-81
2022/07/16 01:09:13;;;;;;;7.23;5.97;;;18.20;67.30;;;;;;5037197;28;20476;-81
2022/07/16 01:11:40;;;;;;;6.83;5.93;;;18.10;67.30;;;;;;5036379;28;20434;-81
2022/07/16 01:14:09;;;;;;;9.47;5.90;;;18.10;66.90;;;;;;5036398;28;20480;-81
2022/07/16 01:16:36;;;;;;;7.13;5.40;;;18.10;66.90;;;;;;5037165;28;20546;-81
2022/07/16 01:19:02;;;;;;;8.53;6.23;;;18.00;67.20;;;;;;5035970;28;20449;-81
2022/07/16 01:21:29;;;;;;;7.70;5.80;;;18.00;67.60;;;;;;5036597;28;20441;-81
2022/07/16 01:23:57;;;;;;;6.30;5.57;;;18.00;67.80;;;;;;5036253;28;20464;-81
2022/07/16 01:26:24;;;;;;;7.37;5.60;;;18.00;68.30;;;;;;5035770;28;21068;-81
2022/07/16 01:28:50;;;;;;;6.33;5.73;;;17.90;68.70;;;;;;5035900;28;20453;-81
2022/07/16 01:31:17;;;;;;;8.20;5.83;;;17.90;69.00;;;;;;5033929;28;20441;-81
2022/07/16 01:34:24;;;;;;;7.37;6.63;;;17.80;68.90;;;;;;5035438;28;20950;-81
2022/07/16 01:36:31;;;;;;;8.27;6.33;;;17.80;69.20;;;;;;5035539;28;20849;-81
2022/07/16 01:38:59;;;;;;;9.73;6.50;;;17.80;69.00;;;;;;5036209;28;20436;-82
2022/07/16 01:41:26;;;;;;;7.23;5.83;;;17.80;68.60;;;;;;5045749;28;20430;-80
2022/07/16 01:43:52;;;;;;;11.60;6.40;;;17.90;68.80;;;;;;5045741;28;20433;-81
2022/07/16 01:46:19;;;;;;;9.10;6.60;;;17.90;68.50;;;;;;5035677;28;20440;-81
2022/07/16 01:48:46;;;;;;;6.90;5.90;;;17.90;68.50;;;;;;5036695;28;20434;-82
2022/07/16 01:51:12;;;;;;;10.83;7.57;;;17.90;68.60;;;;;;5045980;28;20433;-81
2022/07/16 01:53:39;;;;;;;11.47;7.80;;;17.90;68.90;;;;;;5045959;28;20437;-81
2022/07/16 01:56:08;;;;;;;7.00;6.40;;;17.90;69.30;;;;;;5035134;28;20562;-80
2022/07/16 01:58:35;;;;;;;7.33;6.63;;;17.90;69.60;;;;;;5033938;28;20930;-81
2022/07/16 02:01:02;;;;;;;8.07;6.63;;;17.80;70.00;;;;;;5034135;28;20480;-81
2022/07/16 02:03:28;;;;;;;7.50;6.07;;;17.80;70.60;;;;;;5036335;28;20446;-81
2022/07/16 02:05:55;;;;;;;7.53;6.67;;;17.70;71.00;;;;;;5034850;28;20453;-81
2022/07/16 02:08:22;;;;;;;8.10;6.47;;;17.70;71.50;;;;;;5035382;28;20430;-81
2022/07/16 02:10:48;;;;;;;7.20;6.03;;;17.60;71.60;;;;;;5035409;28;20438;-81
2022/07/16 02:13:16;;;;;;;7.87;7.03;;;17.50;71.70;;;;;;5035934;28;20437;-81
2022/07/16 02:15:43;;;;;;;7.50;6.50;;;17.50;72.00;;;;;;5040698;28;20887;-80
2022/07/16 02:18:10;;;;;;;8.00;6.00;;;17.50;72.20;;;;;;5046358;28;20438;-81
2022/07/16 02:20:36;;;;;;;8.23;6.43;;;17.50;72.20;;;;;;5040362;28;20453;-81
2022/07/16 02:23:03;;;;;;;6.67;6.07;;;17.40;72.30;;;;;;5037711;28;20483;-81
2022/07/16 02:25:30;;;;;;;6.67;6.07;;;17.30;72.60;;;;;;5034232;28;20468;-81
2022/07/16 02:28:08;;;;;;;6.73;6.03;;;17.30;72.90;;;;;;5034032;28;20438;-80
2022/07/16 02:30:38;;;;;;;8.20;6.00;;;17.40;73.00;;;;;;5033616;28;20952;-81
2022/07/16 02:33:06;;;;;;;6.50;5.90;;;17.30;72.70;;;;;;5035037;28;20456;-80
2022/07/16 02:35:33;;;;;;;6.67;6.00;;;17.30;72.70;;;;;;5034061;28;20477;-80
2022/07/16 02:38:00;;;;;;;6.67;5.97;;;17.20;72.50;;;;;;5036817;28;20441;-81
2022/07/16 02:40:27;;;;;;;9.87;6.13;;;17.20;72.50;;;;;;5048079;28;20564;-81
2022/07/16 02:42:54;;;;;;;6.90;5.17;;;17.20;73.20;;;;;;5051919;28;20452;-79
2022/07/16 02:45:20;;;;;;;8.97;5.50;;;17.30;72.30;;;;;;5053809;28;20462;-80
2022/07/16 02:47:49;;;;;;;6.73;5.87;;;17.30;72.00;;;;;;5055259;28;20422;-82
2022/07/16 02:50:15;;;;;;;9.40;6.37;;;17.30;71.80;;;;;;5047353;28;20430;-82
2022/07/16 02:52:42;;;;;;;9.23;5.60;;;17.20;71.70;;;;;;5044886;28;20441;-82
2022/07/16 02:55:09;;;;;;;6.83;5.30;;;17.20;71.70;;;;;;5043925;28;20508;-81
2022/07/16 02:57:36;;;;;;;7.93;5.93;;;17.10;71.70;;;;;;5041982;28;20433;-82
2022/07/16 03:00:04;;;;;;;6.33;5.30;;;17.10;71.80;;;;;;5039264;28;20441;-82
2022/07/16 03:02:30;;;;;;;11.50;5.97;;;17.20;72.30;;;;;;5041136;28;20529;-82
2022/07/16 03:04:58;;;;;;;5.80;5.30;;;17.10;72.40;;;;;;5044639;28;20461;-80
2022/07/16 03:07:25;;;;;;;10.00;5.50;;;17.10;72.30;;;;;;5048125;28;20433;-82
2022/07/16 03:09:52;;;;;;;5.90;5.40;;;17.20;72.30;;;;;;5057414;28;20430;-82
2022/07/16 03:12:18;;;;;;;6.00;5.40;;;17.20;72.10;;;;;;5056530;28;20441;-81
2022/07/16 03:14:45;;;;;;;7.67;6.53;;;17.10;72.10;;;;;;5048463;28;20474;-80
2022/07/16 03:17:13;;;;;;;8.83;6.03;;;17.10;72.70;;;;;;5047034;28;20445;-80
2022/07/16 03:19:40;;;;;;;6.50;5.83;;;17.00;73.70;;;;;;5045267;28;20468;-80
2022/07/16 03:22:08;;;;;;;7.03;6.33;;;16.90;74.30;;;;;;5040695;28;20450;-80
2022/07/16 03:24:35;;;;;;;6.40;5.00;;;16.80;75.20;;;;;;5047293;28;20985;-80
2022/07/16 03:27:02;;;;;;;7.70;6.40;;;16.80;75.90;;;;;;5036431;28;20452;-80
2022/07/16 03:29:28;;;;;;;8.63;5.67;;;16.70;76.30;;;;;;5037932;28;20445;-81
2022/07/16 03:31:55;;;;;;;6.70;5.70;;;16.70;76.70;;;;;;5050579;28;20426;-80
2022/07/16 03:34:22;;;;;;;5.83;5.23;;;16.50;76.70;;;;;;5040486;28;20473;-80
2022/07/16 03:36:48;;;;;;;7.93;5.43;;;16.40;77.50;;;;;;5037500;28;20858;-81
2022/07/16 03:39:16;;;;;;;10.20;6.40;;;16.30;76.70;;;;;;5037390;28;20848;-80
2022/07/16 03:41:43;;;;;;;10.90;7.33;;;16.40;76.70;;;;;;5038045;28;20453;-80
2022/07/16 03:44:12;;;;;;;6.83;5.40;;;16.30;77.20;;;;;;5037021;28;20442;-80
2022/07/16 03:46:38;;;;;;;12.77;7.33;;;16.20;77.80;;;;;;5036835;28;20446;-80
2022/07/16 03:49:13;;;;;;;7.50;6.47;;;16.20;78.50;;;;;;5037530;28;20453;-80
2022/07/16 03:51:40;;;;;;;8.20;6.43;;;16.10;79.70;;;;;;5036171;28;20535;-80
2022/07/16 03:54:07;;;;;;;9.53;7.33;;;16.10;80.70;;;;;;5037030;28;20445;-81
2022/07/16 03:56:35;;;;;;;8.53;7.03;;;16.00;81.50;;;;;;5036254;28;20485;-80
2022/07/16 03:59:01;;;;;;;7.30;6.60;;;16.00;82.10;;;;;;5036983;28;20449;-80
2022/07/16 04:01:28;;;;;;;8.10;7.30;;;16.10;82.60;;;;;;5037404;28;20446;-81
2022/07/16 04:03:55;;;;;;;11.93;7.60;;;16.00;83.20;;;;;;5036660;28;20587;-80
2022/07/16 04:06:22;;;;;;;8.03;7.33;;;16.00;84.20;;;;;;5036077;28;20434;-81
2022/07/16 04:08:49;;;;;;;12.17;7.90;;;15.90;85.20;;;;;;5034990;28;20434;-81
2022/07/16 04:11:15;;;;;;;9.23;8.33;;;15.90;86.50;;;;;;5036870;28;20453;-80
2022/07/16 04:13:44;;;;;;;12.80;8.90;;;15.90;87.50;;;;;;5036774;28;20438;-81
2022/07/16 04:16:11;;;;;;;8.67;7.87;;;15.90;88.50;;;;;;5036257;28;20840;-81
2022/07/16 04:18:38;;;;;;;8.80;8.00;;;15.90;89.30;;;;;;5048631;28;20891;-80
2022/07/16 04:21:06;;;;;;;9.27;8.37;;;15.90;89.90;;;;;;5041545;28;20445;-81
2022/07/16 04:23:33;;;;;;;10.60;9.50;;;15.90;90.40;;;;;;5036584;28;20437;-81
2022/07/16 04:26:00;;;;;;;11.90;9.37;;;15.90;90.70;;;;;;5036459;28;20465;-81
2022/07/16 04:28:26;;;;;;;9.60;8.60;;;15.90;91.00;;;;;;5038536;28;20441;-81
2022/07/16 04:30:55;;;;;;;10.40;8.90;;;16.00;91.20;;;;;;5040841;28;20824;-81
2022/07/16 04:33:22;;;;;;;10.50;9.20;;;16.00;91.20;;;;;;5036336;28;20782;-81
2022/07/16 04:35:49;;;;;;;9.73;8.77;;;16.00;91.40;;;;;;5033964;28;20520;-81
2022/07/16 04:38:15;;;;;;;9.20;8.23;;;16.00;91.50;;;;;;5039419;28;20454;-81
2022/07/16 04:40:42;;;;;;;11.80;8.93;;;16.00;91.50;;;;;;5039044;28;20445;-80
2022/07/16 04:43:09;;;;;;;14.23;9.57;;;16.00;91.60;;;;;;5036182;28;20449;-81
2022/07/16 04:45:35;;;;;;;9.80;8.40;;;16.00;91.70;;;;;;5035696;28;20466;-81
2022/07/16 04:48:04;;;;;;;15.80;8.57;;;16.00;91.80;;;;;;5036336;28;20468;-81
2022/07/16 04:50:30;;;;;;;9.47;8.40;;;16.00;92.10;;;;;;5035992;28;21148;-81
2022/07/16 04:52:57;;;;;;;9.60;8.00;;;16.10;92.60;;;;;;5037515;28;20495;-81
2022/07/16 04:55:24;;;;;;;8.73;7.93;;;16.10;92.30;;;;;;5036112;28;20485;-82
2022/07/16 04:57:50;;;;;;;10.73;7.70;;;16.10;92.40;;;;;;5035648;28;20446;-82
2022/07/16 05:00:17;;;;;;;10.17;9.27;;;16.00;92.50;;;;;;5044113;28;20438;-79
2022/07/16 05:02:59;;;;;;;8.80;7.17;;;16.10;92.70;;;;;;5049440;28;20464;-80
2022/07/16 05:05:29;;;;;;;9.80;8.30;;;16.10;92.80;;;;;;5039203;28;20580;-80
2022/07/16 05:07:55;;;;;;;9.60;8.70;;;16.10;93.00;;;;;;5045543;28;20942;-80
2022/07/16 05:10:22;;;;;;;9.23;8.33;;;16.10;93.20;;;;;;5038285;28;20441;-81
2022/07/16 05:12:49;;;;;;;8.77;7.83;;;16.20;93.50;;;;;;5045401;28;20434;-81
2022/07/16 05:15:16;;;;;;;11.73;10.50;;;16.30;93.60;;;;;;5042884;28;20511;-80
2022/07/16 05:17:43;;;;;;;8.50;7.70;;;16.40;93.30;;;;;;5034900;28;20918;-80
2022/07/16 05:20:10;;;;;;;12.27;7.80;;;16.60;93.20;;;;;;5035408;28;20442;-80
2022/07/16 05:22:38;;;;;;;8.37;7.60;;;17.10;92.40;;;;;;5035869;28;20476;-80
2022/07/16 05:25:06;;;;;;;8.13;7.10;;;17.70;90.30;;;;;;5035419;28;20462;-80
2022/07/16 05:27:33;;;;;;;7.97;7.17;;;18.40;86.60;;;;;;5035115;28;20433;-80
2022/07/16 05:29:59;;;;;;;8.83;7.87;;;19.20;82.60;;;;;;5035501;28;20434;-80
2022/07/16 05:32:26;;;;;;;11.57;7.73;;;19.80;78.30;;;;;;5035225;28;20962;-80
2022/07/16 05:34:53;;;;;;;8.27;7.57;;;20.40;75.90;;;;;;5035308;28;20472;-80
2022/07/16 05:37:20;;;;;;;7.90;7.10;;;20.90;72.50;;;;;;5033779;28;21195;-80
2022/07/16 05:39:48;;;;;;;8.73;7.47;;;21.30;69.70;;;;;;5034791;28;20445;-80
2022/07/16 05:42:14;;;;;;;8.73;7.40;;;21.60;67.10;;;;;;5035932;28;20500;-80
2022/07/16 05:44:41;;;;;;;8.43;7.67;;;21.80;66.60;;;;;;5036981;28;20511;-80
2022/07/16 05:47:08;;;;;;;9.60;6.87;;;22.30;65.20;;;;;;5036710;28;20444;-80
2022/07/16 05:49:34;;;;;;;10.00;7.70;;;22.50;64.00;;;;;;5035114;28;20434;-81
2022/07/16 05:52:01;;;;;;;7.70;7.00;;;22.80;61.70;;;;;;5034519;28;20819;-81
2022/07/16 05:54:28;;;;;;;8.80;7.90;;;23.10;59.90;;;;;;5035178;28;20883;-81
2022/07/16 05:56:56;;;;;;;7.40;6.83;;;22.90;60.00;;;;;;5037045;28;20492;-81
2022/07/16 05:59:23;;;;;;;9.40;7.20;;;23.30;59.30;;;;;;5041105;28;20470;-81
2022/07/16 06:01:49;;;;;;;10.40;7.67;;;23.70;58.40;;;;;;5038978;28;20438;-81
2022/07/16 06:04:16;;;;;;;7.47;5.83;;;24.10;56.90;;;;;;5035540;28;20457;-81
2022/07/16 06:06:43;;;;;;;8.23;6.83;;;24.60;56.00;;;;;;5035039;28;20434;-81
2022/07/16 06:09:10;;;;;;;7.03;6.30;;;25.00;54.80;;;;;;5034768;28;20453;-81
2022/07/16 06:11:36;;;;;;;7.30;6.47;;;25.40;54.20;;;;;;5035365;28;20442;-82
2022/07/16 06:14:04;;;;;;;6.97;6.30;;;25.50;52.00;;;;;;5036689;28;20449;-82
2022/07/16 06:16:31;;;;;;;7.37;6.67;;;25.80;51.50;;;;;;5038590;28;20473;-82
2022/07/16 06:18:58;;;;;;;6.17;5.30;;;25.80;50.80;;;;;;5037788;28;20947;-83
2022/07/16 06:21:24;;;;;;;7.30;6.70;;;26.10;50.30;;;;;;5037773;28;20870;-83
2022/07/16 06:23:51;;;;;;;6.47;5.67;;;26.60;49.00;;;;;;5039496;28;20465;-82
2022/07/16 06:26:18;;;;;;;7.37;5.93;;;27.00;48.60;;;;;;5039819;28;20918;-82
2022/07/16 06:28:44;;;;;;;9.13;5.70;;;27.40;46.90;;;;;;5040010;28;20441;-83
2022/07/16 06:31:12;;;;;;;5.40;4.90;;;26.80;46.30;;;;;;5038789;28;20452;-82
2022/07/16 06:33:39;;;;;;;6.07;5.23;;;27.40;46.40;;;;;;5038661;28;20448;-84
2022/07/16 06:36:06;;;;;;;11.47;5.20;;;26.50;46.80;;;;;;5038282;28;20489;-83
2022/07/16 06:38:33;;;;;;;6.27;5.07;;;27.00;46.30;;;;;;5037978;28;20437;-83
2022/07/16 06:41:00;;;;;;;6.07;5.47;;;27.50;45.50;;;;;;5041115;28;20470;-82
2022/07/16 06:43:26;;;;;;;8.70;5.67;;;28.20;45.10;;;;;;5048036;28;20435;-81
2022/07/16 06:45:53;;;;;;;8.23;5.70;;;28.90;44.00;;;;;;5047866;28;21028;-81
2022/07/16 06:48:22;;;;;;;5.93;5.43;;;29.20;43.00;;;;;;5040769;28;20442;-82
2022/07/16 06:50:49;;;;;;;5.03;4.33;;;29.60;42.20;;;;;;5052633;28;20447;-81
2022/07/16 06:53:16;;;;;;;8.23;5.40;;;29.90;41.50;;;;;;5047255;28;20443;-83
2022/07/16 06:55:43;;;;;;;5.87;5.27;;;30.30;40.80;;;;;;5053432;28;20465;-80
2022/07/16 06:58:10;;;;;;;5.77;5.23;;;30.30;40.20;;;;;;5045417;28;20439;-83
2022/07/16 07:00:36;;;;;;;5.47;4.97;;;30.10;40.90;;;;;;5050531;28;20462;-83
2022/07/16 07:03:03;;;;;;;6.93;5.20;;;30.20;40.10;;;;;;5037670;28;20461;-84
2022/07/16 07:05:31;;;;;;;6.43;5.60;;;30.00;40.60;;;;;;5035375;28;20463;-83
2022/07/16 07:07:58;;;;;;;5.70;5.10;;;30.60;40.00;;;;;;5041146;28;20436;-81
2022/07/16 07:10:25;;;;;;;6.40;5.67;;;31.10;39.60;;;;;;5038547;28;20445;-83
2022/07/16 07:12:52;;;;;;;7.50;5.83;;;31.70;38.90;;;;;;5039535;28;20448;-83
2022/07/16 07:15:20;;;;;;;5.97;5.47;;;31.90;37.70;;;;;;5036803;28;20523;-83
2022/07/16 07:17:46;;;;;;;6.80;6.10;;;32.30;38.00;;;;;;5040835;28;20477;-83
2022/07/16 07:20:13;;;;;;;5.40;5.00;;;32.70;36.90;;;;;;5041467;28;20457;-84
2022/07/16 07:22:41;;;;;;;5.10;4.70;;;32.50;36.50;;;;;;5043287;28;20443;-84
2022/07/16 07:25:09;;;;;;;6.43;5.00;;;32.90;36.40;;;;;;5048963;28;20459;-81
2022/07/16 07:27:36;;;;;;;7.73;5.50;;;33.30;35.50;;;;;;5048858;28;20456;-84
2022/07/16 07:30:03;;;;;;;5.63;5.10;;;33.30;35.20;;;;;;5041567;28;20451;-83
2022/07/16 07:32:30;;;;;;;5.80;5.13;;;33.50;34.80;;;;;;5043595;28;20496;-84
2022/07/16 07:34:57;;;;;;;8.10;4.70;;;33.40;34.50;;;;;;5043559;28;20555;-90
2022/07/16 07:37:23;;;;;;;5.43;4.57;;;33.80;34.60;;;;;;5036964;28;20486;-85
2022/07/16 07:39:51;;;;;;;4.70;4.20;;;34.00;34.10;;;;;;5036183;28;20446;-85
2022/07/16 07:42:18;;;;;;;6.23;4.87;;;34.50;34.10;;;;;;5045817;28;20448;-85
2022/07/16 07:44:45;;;;;;;5.10;4.60;;;34.30;33.10;;;;;;5040755;28;20460;-85
2022/07/16 07:47:12;;;;;;;5.43;4.33;;;34.20;33.30;;;;;;5035247;28;20445;-85
2022/07/16 07:49:38;;;;;;;4.40;4.00;;;34.60;32.90;;;;;;5035651;28;20451;-85
2022/07/16 07:52:07;;;;;;;5.90;4.10;;;35.50;32.00;;;;;;5034384;28;20453;-85
2022/07/16 07:54:33;;;;;;;3.90;3.53;;;35.70;30.70;;;;;;5032225;28;20518;-85
2022/07/16 07:57:01;;;;;;;5.73;3.90;;;35.40;30.70;;;;;;5033594;28;20483;-86
2022/07/16 07:59:28;;;;;;;4.43;3.00;;;35.30;30.40;;;;;;5034988;28;20445;-85
2022/07/16 08:01:55;;;;;;;3.83;3.07;;;35.30;30.80;;;;;;5035137;28;20447;-85
2022/07/16 08:04:22;;;;;;;4.77;3.00;;;35.80;30.20;;;;;;5034681;28;20523;-85
2022/07/16 08:06:48;;;;;;;3.47;3.17;;;36.30;29.10;;;;;;5034167;28;20435;-85
2022/07/16 08:09:15;;;;;;;3.17;2.87;;;36.80;28.20;;;;;;5034977;28;20537;-86
2022/07/16 08:11:42;;;;;;;4.27;3.30;;;36.80;27.80;;;;;;5034829;28;20447;-85
2022/07/16 08:14:10;;;;;;;3.73;3.10;;;35.90;28.20;;;;;;5034700;28;20456;-85
2022/07/16 08:16:37;;;;;;;3.50;3.20;;;36.20;28.80;;;;;;5034161;28;20488;-85
2022/07/16 08:19:03;;;;;;;4.00;3.30;;;36.20;29.20;;;;;;5032164;28;21148;-91
2022/07/16 08:21:30;;;;;;;4.90;4.10;;;36.80;28.90;;;;;;5034024;28;20823;-85
2022/07/16 08:26:41;;;;;;;4.77;3.87;;;36.30;28.90;;;;;;5032739;28;20416;-86
2022/07/16 08:29:09;;;;;;;4.40;3.00;;;35.90;29.70;;;;;;5035052;28;20992;-86
2022/07/16 08:31:38;;;;;;;2.50;2.30;;;36.30;28.80;;;;;;5031977;28;20806;-87
2022/07/16 08:34:05;;;;;;;6.17;2.83;;;35.40;27.80;;;;;;5033714;28;20440;-89
2022/07/16 08:36:31;;;;;;;3.53;2.57;;;34.20;29.40;;;;;;5040070;28;20478;-87
2022/07/16 08:38:58;;;;;;;4.33;2.70;;;34.10;29.60;;;;;;5035300;28;20541;-86
2022/07/16 08:41:25;;;;;;;3.47;3.17;;;35.20;28.80;;;;;;5045122;28;20448;-84
2022/07/16 08:43:53;;;;;;;5.73;2.87;;;35.90;28.20;;;;;;5056026;28;20450;-84
2022/07/16 08:46:22;;;;;;;2.47;1.80;;;36.20;27.60;;;;;;5044427;28;20440;-87
2022/07/16 08:48:49;;;;;;;3.40;3.10;;;37.20;27.00;;;;;;5045177;28;20441;-86
2022/07/16 08:51:21;;;;;;;5.07;2.83;;;37.20;26.50;;;;;;5042407;28;20455;-87
2022/07/16 08:53:49;;;;;;;2.80;2.50;;;37.50;26.30;;;;;;5043612;28;20483;-86
2022/07/16 08:56:16;;;;;;;3.30;2.70;;;37.70;25.60;;;;;;5037059;28;20531;-88
2022/07/16 08:58:43;;;;;;;2.23;2.03;;;37.90;25.60;;;;;;5035993;28;20499;-88
2022/07/16 09:01:10;;;;;;;2.67;2.23;;;38.80;25.20;;;;;;5034635;28;20817;-86
2022/07/16 09:03:38;;;;;;;3.00;2.13;;;39.20;24.80;;;;;;5035064;28;20441;-87
2022/07/16 09:06:05;;;;;;;3.50;2.50;;;39.40;24.40;;;;;;5033194;28;20473;-86
2022/07/16 09:08:32;;;;;;;3.57;2.07;;;38.80;24.30;;;;;;5036512;28;20452;-89
2022/07/16 09:11:17;;;;;;;3.60;2.13;;;38.60;25.00;;;;;;5038734;28;20452;-84
2022/07/16 09:14:00;;;;;;;3.13;2.73;;;39.40;24.40;;;;;;5033085;28;20483;-84
2022/07/16 09:16:30;;;;;;;2.77;2.53;;;38.00;24.30;;;;;;5033171;28;20452;-87
2022/07/16 09:19:07;;;;;;;3.50;2.20;;;37.80;25.30;;;;;;5033643;28;20804;-86
2022/07/16 09:21:35;;;;;;;2.87;2.37;;;36.70;25.90;;;;;;5032611;28;20523;-85
2022/07/16 09:24:02;;;;;;;2.30;2.10;;;36.80;26.00;;;;;;5052721;28;20440;-87
2022/07/16 09:26:29;;;;;;;2.60;1.87;;;38.10;25.60;;;;;;5057298;28;20458;-89
2022/07/16 09:29:01;;;;;;;2.77;2.57;;;38.40;24.80;;;;;;5052935;28;20503;-88
2022/07/16 09:31:35;;;;;;;2.93;2.30;;;39.50;24.70;;;;;;5035867;28;20449;-88
2022/07/16 09:34:03;;;;;;;2.30;1.97;;;39.80;24.10;;;;;;5033336;28;20459;-88
2022/07/16 09:36:32;;;;;;;3.10;2.20;;;39.80;23.60;;;;;;5033512;28;20454;-88
2022/07/16 09:39:00;;;;;;;3.37;2.20;;;38.80;24.40;;;;;;5033969;28;20449;-87
2022/07/16 09:41:27;;;;;;;4.00;2.50;;;38.70;24.70;;;;;;5033905;28;20447;-88
2022/07/16 09:43:56;;;;;;;3.87;2.87;;;39.40;24.10;;;;;;5033961;28;20444;-88
2022/07/16 09:46:24;;;;;;;3.80;2.23;;;40.30;23.80;;;;;;5032692;28;20446;-88
2022/07/16 09:48:51;;;;;;;4.33;1.80;;;41.00;23.10;;;;;;5031938;28;21040;-88
2022/07/16 09:51:25;;;;;;;2.50;1.77;;;41.00;22.60;;;;;;5033443;28;20457;-87
2022/07/16 09:53:55;;;;;;;2.53;2.00;;;41.60;22.20;;;;;;5057189;28;20430;-86
2022/07/16 09:56:23;;;;;;;3.43;2.07;;;41.60;22.00;;;;;;5056702;28;20457;-86
2022/07/16 09:58:52;;;;;;;4.37;2.03;;;41.50;22.10;;;;;;5034751;28;20500;-87
2022/07/16 10:01:20;;;;;;;5.13;2.40;;;41.30;22.10;;;;;;5034362;28;20442;-88
2022/07/16 10:03:47;;;;;;;2.97;1.50;;;41.60;22.30;;;;;;5044641;28;20439;-86
2022/07/16 10:06:14;;;;;;;2.80;1.77;;;42.30;21.80;;;;;;5038672;28;20458;-88
2022/07/16 10:08:43;;;;;;;3.23;2.33;;;42.10;21.30;;;;;;5037996;28;20446;-87
2022/07/16 10:11:12;;;;;;;2.27;2.03;;;42.40;21.50;;;;;;5036268;28;20473;-86
2022/07/16 10:13:42;;;;;;;9.43;4.23;;;41.90;21.20;;;;;;5044941;23;20494;-86
2022/07/16 10:16:09;;;;;;;6.60;2.70;;;41.40;21.80;;;;;;5033369;28;20461;-85
2022/07/16 10:18:38;;;;;;;2.93;2.10;;;41.20;22.00;;;;;;5043724;28;20970;-84
2022/07/16 10:21:08;;;;;;;2.70;1.80;;;42.10;21.90;;;;;;5035258;28;20450;-85
2022/07/16 10:23:37;;;;;;;3.43;3.10;;;42.80;21.30;;;;;;5032885;28;20476;-85
2022/07/16 10:26:06;;;;;;;4.13;2.40;;;42.50;21.20;;;;;;5048841;28;20433;-84
2022/07/16 10:28:41;;;;;;;2.93;2.00;;;42.90;21.30;;;;;;5055593;28;20520;-84
2022/07/16 10:31:38;;;;;;;2.60;1.40;;;42.60;21.10;;;;;;5040658;28;20460;-87
2022/07/16 10:34:35;;;;;;;4.10;2.00;;;42.10;21.80;;;;;;5033919;28;20469;-87
2022/07/16 10:37:03;;;;;;;3.60;2.07;;;42.10;21.90;;;;;;4972568;28;20504;-86
2022/07/16 10:39:30;;;;;;;2.40;1.80;;;41.60;21.80;;;;;;5019432;28;20454;-87
2022/07/16 10:41:59;;;;;;;2.10;1.80;;;41.40;21.80;;;;;;5030507;28;20819;-86
2022/07/16 10:44:43;;;;;;;2.67;2.07;;;41.40;21.30;;;;;;5030066;28;20442;-85
2022/07/16 10:47:10;;;;;;;2.33;1.80;;;41.30;21.30;;;;;;5033634;28;20497;-85
2022/07/16 10:49:37;;;;;;;2.23;1.80;;;41.00;21.50;;;;;;5056333;28;20513;-85
2022/07/16 10:52:05;;;;;;;3.53;2.50;;;41.00;21.80;;;;;;5042796;28;20451;-87
2022/07/16 10:54:35;;;;;;;1.80;1.50;;;41.40;21.10;;;;;;5026007;28;20435;-88
2022/07/16 10:57:03;;;;;;;3.97;1.90;;;41.90;20.90;;;;;;5025426;28;20448;-87
2022/07/16 10:59:33;;;;;;;2.80;1.90;;;41.70;21.20;;;;;;5030717;28;20448;-88
2022/07/16 11:02:02;;;;;;;5.40;2.40;;;41.30;21.40;;;;;;5031455;28;20465;-87
2022/07/16 11:04:34;;;;;;;3.60;2.17;;;40.60;21.80;;;;;;5032104;28;20447;-86
2022/07/16 11:07:02;;;;;;;2.50;1.80;;;40.30;22.10;;;;;;5056314;28;20433;-86
2022/07/16 11:09:30;;;;;;;4.10;2.10;;;41.10;21.70;;;;;;5044102;28;20458;-87
2022/07/16 11:12:07;;;;;;;3.07;1.90;;;41.70;21.00;;;;;;5031233;28;20469;-88
2022/07/16 11:14:36;;;;;;;3.27;2.17;;;42.90;20.40;;;;;;5027799;28;20437;-87
2022/07/16 11:17:03;;;;;;;3.83;1.87;;;43.40;20.00;;;;;;5028800;28;20524;-87
2022/07/16 11:19:30;;;;;;;2.70;1.97;;;43.20;19.80;;;;;;5029604;28;20438;-88
2022/07/16 11:21:58;;;;;;;4.27;1.80;;;44.30;19.50;;;;;;5024535;28;20443;-88
2022/07/16 11:24:27;;;;;;;3.10;2.00;;;44.50;19.00;;;;;;5031731;28;20461;-87
2022/07/16 11:26:54;;;;;;;1.83;1.43;;;42.30;19.00;;;;;;5030509;28;20446;-87
2022/07/16 11:29:24;;;;;;;1.77;1.57;;;41.40;19.90;;;;;;5026040;28;20445;-87
2022/07/16 11:31:55;;;;;;;4.23;1.87;;;41.20;20.50;;;;;;5026987;28;20446;-87
2022/07/16 11:34:22;;;;;;;3.30;1.73;;;41.90;20.30;;;;;;5027129;28;20439;-87
2022/07/16 11:36:51;;;;;;;2.90;1.60;;;42.50;20.00;;;;;;5030572;28;20465;-87
2022/07/16 11:39:19;;;;;;;2.17;1.80;;;43.00;19.50;;;;;;5024015;28;20426;-87
2022/07/16 11:41:48;;;;;;;2.83;1.80;;;44.00;19.10;;;;;;5031269;28;20434;-87
2022/07/16 11:44:17;;;;;;;1.90;1.60;;;44.00;19.10;;;;;;5028953;28;20430;-87
2022/07/16 11:46:46;;;;;;;5.10;1.73;;;43.60;18.60;;;;;;5029396;28;20471;-87
2022/07/16 11:49:23;;;;;;;3.23;1.60;;;43.80;19.10;;;;;;5026209;28;20478;-86
2022/07/16 11:51:50;;;;;;;1.80;1.60;;;44.50;18.60;;;;;;5031631;28;20446;-87
2022/07/16 11:54:17;;;;;;;2.47;1.73;;;43.80;18.50;;;;;;5033165;28;20510;-87
2022/07/16 11:56:44;;;;;;;3.03;1.53;;;43.50;19.10;;;;;;5033202;28;20453;-86
2022/07/16 11:59:19;;;;;;;1.87;1.30;;;43.20;19.10;;;;;;5031163;28;20465;-87
2022/07/16 12:01:47;;;;;;;1.83;1.50;;;43.80;18.90;;;;;;5025593;28;20817;-87
2022/07/16 12:04:15;;;;;;;4.60;2.27;;;43.70;19.00;;;;;;5036720;28;20506;-86
2022/07/16 12:06:47;;;;;;;3.80;2.23;;;43.70;19.30;;;;;;5030033;28;20815;-86
2022/07/16 12:09:30;;;;;;;1.90;1.13;;;43.70;19.30;;;;;;5040018;28;20486;-86
2022/07/16 12:12:00;;;;;;;24.30;4.50;;;44.60;18.90;;;;;;5028966;28;20453;-85
2022/07/16 12:14:43;;;;;;;3.27;1.80;;;45.20;19.40;;;;;;5022716;28;20441;-86
2022/07/16 12:17:19;;;;;;;3.50;1.70;;;44.70;19.70;;;;;;5053528;28;20443;-86
2022/07/16 12:20:06;;;;;;;4.23;1.70;;;44.50;19.20;;;;;;5028174;28;20454;-85
2022/07/16 12:22:47;;;;;;;2.47;1.67;;;43.90;18.90;;;;;;5021665;28;20462;-85
2022/07/16 12:25:21;;;;;;;3.40;1.43;;;43.00;19.80;;;;;;5035050;28;20438;-85
2022/07/16 12:27:49;;;;;;;3.53;1.90;;;42.80;19.90;;;;;;5041374;28;20481;-86
2022/07/16 12:30:16;;;;;;;2.63;1.50;;;42.90;20.10;;;;;;5036557;28;20564;-87
2022/07/16 12:32:50;;;;;;;2.90;1.47;;;43.20;19.80;;;;;;5033720;28;20466;-87
2022/07/16 12:35:45;;;;;;;3.40;1.77;;;43.40;19.40;;;;;;5030512;28;20813;-89
2022/07/16 12:38:38;;;;;;;1.80;1.40;;;43.70;19.10;;;;;;5029184;28;20470;-87
2022/07/16 12:41:07;;;;;;;4.63;1.87;;;43.00;19.90;;;;;;5032634;28;20828;-86
2022/07/16 12:43:34;;;;;;;2.57;1.50;;;44.10;19.80;;;;;;5033794;28;20462;-86
2022/07/16 12:46:03;;;;;;;3.00;1.57;;;43.60;19.40;;;;;;5028262;28;20528;-86
2022/07/16 12:48:30;;;;;;;2.57;1.80;;;43.00;19.90;;;;;;5031136;28;20477;-86
2022/07/16 12:50:58;;;;;;;3.10;1.67;;;42.60;20.00;;;;;;5025418;28;20452;-86
2022/07/16 12:53:25;;;;;;;2.13;1.73;;;41.10;20.70;;;;;;5031563;28;20474;-86
2022/07/16 12:58:48;;;;;;;3.67;1.23;;;42.30;20.40;;;;;;5023757;28;20428;-86